createdAt,value
2016-12-03T00:00:03.808Z,956.54
2016-12-03T00:01:03.825Z,956.55
2016-12-03T00:02:03.839Z,956.49
2016-12-03T00:03:03.853Z,956.48
2016-12-03T00:04:03.867Z,956.44
2016-12-03T00:05:03.883Z,956.47
2016-12-03T00:06:03.898Z,956.5
2016-12-03T00:07:03.913Z,956.48
2016-12-03T00:08:03.928Z,956.47
2016-12-03T00:09:03.945Z,956.44
2016-12-03T00:10:03.959Z,956.48
2016-12-03T00:11:03.973Z,956.45
2016-12-03T00:12:03.987Z,956.48
2016-12-03T00:13:04.003Z,956.46
2016-12-03T00:14:04.018Z,956.44
2016-12-03T00:15:04.032Z,956.44
2016-12-03T00:16:04.067Z,956.45
2016-12-03T00:17:04.066Z,956.47
2016-12-03T00:18:04.079Z,956.42
2016-12-03T00:19:04.091Z,956.44
2016-12-03T00:20:04.107Z,956.43
2016-12-03T00:21:04.123Z,956.43
2016-12-03T00:22:04.139Z,956.39
2016-12-03T00:23:04.152Z,956.42
2016-12-03T00:24:04.168Z,956.4
2016-12-03T00:25:04.184Z,956.43
2016-12-03T00:26:04.196Z,956.48
2016-12-03T00:27:04.212Z,956.49
2016-12-03T00:28:04.228Z,956.52
2016-12-03T00:29:04.244Z,956.5
2016-12-03T00:30:04.257Z,956.54
2016-12-03T00:31:04.291Z,956.52
2016-12-03T00:32:04.288Z,956.51
2016-12-03T00:33:04.303Z,956.5
2016-12-03T00:34:04.317Z,956.47
2016-12-03T00:35:04.332Z,956.45
2016-12-03T00:36:04.347Z,956.47
2016-12-03T00:37:04.361Z,956.45
2016-12-03T00:38:04.377Z,956.5
2016-12-03T00:39:04.392Z,956.49
2016-12-03T00:40:04.411Z,956.5
2016-12-03T00:41:04.422Z,956.47
2016-12-03T00:42:04.437Z,956.47
2016-12-03T00:43:04.452Z,956.41
2016-12-03T00:44:04.467Z,956.41
2016-12-03T00:45:04.483Z,956.41
2016-12-03T00:46:04.497Z,956.37
2016-12-03T00:47:04.511Z,956.41
2016-12-03T00:48:04.526Z,956.44
2016-12-03T00:49:04.542Z,956.41
2016-12-03T00:50:04.556Z,956.43
2016-12-03T00:51:04.572Z,956.41
2016-12-03T00:52:04.587Z,956.42
2016-12-03T00:53:04.601Z,956.41
2016-12-03T00:54:04.617Z,956.43
2016-12-03T00:55:04.632Z,956.44
2016-12-03T00:56:04.646Z,956.44
2016-12-03T00:57:04.660Z,956.46
2016-12-03T00:58:04.678Z,956.45
2016-12-03T00:59:04.691Z,956.44
2016-12-03T01:00:04.707Z,956.42
2016-12-03T01:01:04.722Z,956.44
2016-12-03T01:02:04.737Z,956.44
2016-12-03T01:03:04.751Z,956.42
2016-12-03T01:04:04.767Z,956.46
2016-12-03T01:05:04.781Z,956.42
2016-12-03T01:06:04.796Z,956.43
2016-12-03T01:07:04.828Z,956.46
2016-12-03T01:08:04.826Z,956.47
2016-12-03T01:09:04.840Z,956.45
2016-12-03T01:10:04.855Z,956.47
2016-12-03T01:11:04.870Z,956.46
2016-12-03T01:12:04.884Z,956.45
2016-12-03T01:13:04.901Z,956.46
2016-12-03T01:14:04.915Z,956.42
2016-12-03T01:15:04.930Z,956.41
2016-12-03T01:16:04.945Z,956.44
2016-12-03T01:17:04.960Z,956.43
2016-12-03T01:18:04.975Z,956.43
2016-12-03T01:19:04.990Z,956.42
2016-12-03T01:20:05.006Z,956.39
2016-12-03T01:21:05.019Z,956.44
2016-12-03T01:22:05.052Z,956.47
2016-12-03T01:23:05.050Z,956.5
2016-12-03T01:24:05.065Z,956.5
2016-12-03T01:25:05.080Z,956.51
2016-12-03T01:26:05.094Z,956.46
2016-12-03T01:27:05.110Z,956.49
2016-12-03T01:28:05.125Z,956.45
2016-12-03T01:29:05.138Z,956.49
2016-12-03T01:30:05.154Z,956.5
2016-12-03T01:31:05.170Z,956.47
2016-12-03T01:32:05.183Z,956.44
2016-12-03T01:33:05.198Z,956.44
2016-12-03T01:34:05.344Z,956.45
2016-12-03T01:35:05.229Z,956.51
2016-12-03T01:36:05.243Z,956.49
2016-12-03T01:37:05.258Z,956.48
2016-12-03T01:38:05.273Z,956.51
2016-12-03T01:39:05.287Z,956.49
2016-12-03T01:40:05.304Z,956.48
2016-12-03T01:41:05.318Z,956.48
2016-12-03T01:42:05.334Z,956.5
2016-12-03T01:43:05.349Z,956.47
2016-12-03T01:44:05.366Z,956.46
2016-12-03T01:45:05.377Z,956.46
2016-12-03T01:46:05.392Z,956.46
2016-12-03T01:47:05.407Z,956.5
2016-12-03T01:48:05.422Z,956.41
2016-12-03T01:49:05.437Z,956.45
2016-12-03T01:50:05.450Z,956.45
2016-12-03T01:51:05.466Z,956.44
2016-12-03T01:52:05.481Z,956.46
2016-12-03T01:53:05.496Z,956.48
2016-12-03T01:54:05.512Z,956.45
2016-12-03T01:55:05.527Z,956.45
2016-12-03T01:56:05.541Z,956.47
2016-12-03T01:57:05.557Z,956.44
2016-12-03T01:58:05.595Z,956.43
2016-12-03T01:59:05.586Z,956.45
2016-12-03T02:00:05.602Z,956.51
2016-12-03T02:01:05.614Z,956.45
2016-12-03T02:02:05.630Z,956.42
2016-12-03T02:03:05.645Z,956.46
2016-12-03T02:04:05.660Z,956.41
2016-12-03T02:05:05.675Z,956.47
2016-12-03T02:06:05.689Z,956.46
2016-12-03T02:07:05.706Z,956.44
2016-12-03T02:08:05.721Z,956.44
2016-12-03T02:09:05.734Z,956.46
2016-12-03T02:10:05.749Z,956.42
2016-12-03T02:11:05.764Z,956.45
2016-12-03T02:12:05.778Z,956.44
2016-12-03T02:13:05.813Z,956.44
2016-12-03T02:14:05.809Z,956.45
2016-12-03T02:15:05.823Z,956.47
2016-12-03T02:16:05.839Z,956.47
2016-12-03T02:17:05.853Z,956.5
2016-12-03T02:18:05.867Z,956.47
2016-12-03T02:19:05.883Z,956.49
2016-12-03T02:20:05.899Z,956.47
2016-12-03T02:21:05.912Z,956.48
2016-12-03T02:22:05.927Z,956.48
2016-12-03T02:23:05.941Z,956.45
2016-12-03T02:24:05.956Z,956.42
2016-12-03T02:25:05.971Z,956.43
2016-12-03T02:26:05.986Z,956.48
2016-12-03T02:27:06.005Z,956.44
2016-12-03T02:28:06.015Z,956.43
2016-12-03T02:29:06.030Z,956.43
2016-12-03T02:30:06.045Z,956.48
2016-12-03T02:31:06.059Z,956.46
2016-12-03T02:32:06.074Z,956.47
2016-12-03T02:33:06.090Z,956.48
2016-12-03T02:34:06.103Z,956.43
2016-12-03T02:35:06.118Z,956.46
2016-12-03T02:36:06.133Z,956.46
2016-12-03T02:37:06.148Z,956.48
2016-12-03T02:38:06.161Z,956.48
2016-12-03T02:39:06.177Z,956.47
2016-12-03T02:40:06.192Z,956.48
2016-12-03T02:41:06.207Z,956.46
2016-12-03T02:42:06.227Z,956.43
2016-12-03T02:43:06.237Z,956.45
2016-12-03T02:44:06.251Z,956.48
2016-12-03T02:45:06.265Z,956.46
2016-12-03T02:46:06.281Z,956.47
2016-12-03T02:47:06.295Z,956.48
2016-12-03T02:48:06.309Z,956.47
2016-12-03T02:49:06.324Z,956.47
2016-12-03T02:50:06.338Z,956.48
2016-12-03T02:51:06.353Z,956.49
2016-12-03T02:52:06.369Z,956.46
2016-12-03T02:53:06.383Z,956.44
2016-12-03T02:54:06.398Z,956.46
2016-12-03T02:55:06.414Z,956.46
2016-12-03T02:56:06.428Z,956.47
2016-12-03T02:57:06.441Z,956.43
2016-12-03T02:58:06.456Z,956.44
2016-12-03T02:59:06.471Z,956.47
2016-12-03T03:00:06.485Z,956.49
2016-12-03T03:01:06.500Z,956.45
2016-12-03T03:02:06.516Z,956.44
2016-12-03T03:03:06.528Z,956.42
2016-12-03T03:04:06.543Z,956.41
2016-12-03T03:05:06.560Z,956.42
2016-12-03T03:06:06.573Z,956.38
2016-12-03T03:07:06.587Z,956.43
2016-12-03T03:08:06.602Z,956.49
2016-12-03T03:09:06.618Z,956.51
2016-12-03T03:10:06.631Z,956.48
2016-12-03T03:11:06.645Z,956.51
2016-12-03T03:12:06.659Z,956.46
2016-12-03T03:13:06.687Z,956.46
2016-12-03T03:14:06.688Z,956.46
2016-12-03T03:15:06.703Z,956.5
2016-12-03T03:16:06.717Z,956.48
2016-12-03T03:17:06.732Z,956.46
2016-12-03T03:18:06.766Z,956.51
2016-12-03T03:19:06.760Z,956.49
2016-12-03T03:20:06.780Z,956.49
2016-12-03T03:21:06.799Z,956.47
2016-12-03T03:22:06.804Z,956.43
2016-12-03T03:23:06.827Z,956.45
2016-12-03T03:24:06.833Z,956.48
2016-12-03T03:25:06.847Z,956.48
2016-12-03T03:26:06.861Z,956.47
2016-12-03T03:27:06.875Z,956.51
2016-12-03T03:28:06.890Z,956.44
2016-12-03T03:29:06.902Z,956.51
2016-12-03T03:30:06.918Z,956.49
2016-12-03T03:31:06.934Z,956.52
2016-12-03T03:32:06.947Z,956.49
2016-12-03T03:33:06.961Z,956.48
2016-12-03T03:34:06.975Z,956.46
2016-12-03T03:35:06.989Z,956.46
2016-12-03T03:36:07.003Z,956.49
2016-12-03T03:37:07.026Z,956.52
2016-12-03T03:38:07.032Z,956.5
2016-12-03T03:39:07.047Z,956.5
2016-12-03T03:40:07.061Z,956.5
2016-12-03T03:41:07.075Z,956.48
2016-12-03T03:42:07.088Z,956.42
2016-12-03T03:43:07.103Z,956.47
2016-12-03T03:44:07.116Z,956.42
2016-12-03T03:45:07.130Z,956.44
2016-12-03T03:46:07.145Z,956.42
2016-12-03T03:47:07.178Z,956.43
2016-12-03T03:48:07.172Z,956.43
2016-12-03T03:49:07.185Z,956.47
2016-12-03T03:50:07.201Z,956.38
2016-12-03T03:51:07.214Z,956.41
2016-12-03T03:52:07.229Z,956.42
2016-12-03T03:53:07.242Z,956.44
2016-12-03T03:54:07.257Z,956.4
2016-12-03T03:55:07.269Z,956.45
2016-12-03T03:56:07.284Z,956.44
2016-12-03T03:57:07.298Z,956.42
2016-12-03T03:58:07.311Z,956.42
2016-12-03T03:59:07.325Z,956.43
2016-12-03T04:00:07.339Z,956.41
2016-12-03T04:01:07.353Z,956.4
2016-12-03T04:02:07.369Z,956.42
2016-12-03T04:03:07.380Z,956.36
2016-12-03T04:04:07.394Z,956.38
2016-12-03T04:05:07.409Z,956.38
2016-12-03T04:06:07.422Z,956.36
2016-12-03T04:07:07.436Z,956.37
2016-12-03T04:08:07.449Z,956.36
2016-12-03T04:09:07.464Z,956.38
2016-12-03T04:10:07.477Z,956.39
2016-12-03T04:11:07.491Z,956.37
2016-12-03T04:12:07.505Z,956.39
2016-12-03T04:13:07.518Z,956.4
2016-12-03T04:14:07.534Z,956.4
2016-12-03T04:15:07.546Z,956.4
2016-12-03T04:16:07.559Z,956.39
2016-12-03T04:17:07.572Z,956.36
2016-12-03T04:18:07.586Z,956.42
2016-12-03T04:19:07.600Z,956.43
2016-12-03T04:20:07.613Z,956.41
2016-12-03T04:21:07.627Z,956.41
2016-12-03T04:22:07.642Z,956.4
2016-12-03T04:23:07.656Z,956.39
2016-12-03T04:24:07.668Z,956.38
2016-12-03T04:25:07.682Z,956.39
2016-12-03T04:26:07.696Z,956.33
2016-12-03T04:27:07.711Z,956.36
2016-12-03T04:28:07.724Z,956.32
2016-12-03T04:29:07.744Z,956.36
2016-12-03T04:30:07.752Z,956.37
2016-12-03T04:31:07.766Z,956.39
2016-12-03T04:32:07.779Z,956.38
2016-12-03T04:33:07.794Z,956.37
2016-12-03T04:34:07.806Z,956.38
2016-12-03T04:35:07.819Z,956.38
2016-12-03T04:36:07.833Z,956.38
2016-12-03T04:37:07.848Z,956.36
2016-12-03T04:38:07.877Z,956.38
2016-12-03T04:39:07.875Z,956.4
2016-12-03T04:40:07.888Z,956.41
2016-12-03T04:41:07.902Z,956.4
2016-12-03T04:42:07.915Z,956.38
2016-12-03T04:43:07.929Z,956.38
2016-12-03T04:44:07.943Z,956.4
2016-12-03T04:45:07.960Z,956.41
2016-12-03T04:46:07.970Z,956.37
2016-12-03T04:47:07.984Z,956.42
2016-12-03T04:48:08.048Z,956.42
2016-12-03T04:49:08.011Z,956.41
2016-12-03T04:50:08.025Z,956.44
2016-12-03T04:51:08.039Z,956.43
2016-12-03T04:52:08.067Z,956.42
2016-12-03T04:53:08.065Z,956.48
2016-12-03T04:54:08.079Z,956.45
2016-12-03T04:55:08.093Z,956.44
2016-12-03T04:56:08.107Z,956.42
2016-12-03T04:57:08.120Z,956.46
2016-12-03T04:58:08.134Z,956.42
2016-12-03T04:59:08.150Z,956.44
2016-12-03T05:00:08.167Z,956.46
2016-12-03T05:01:08.173Z,956.41
2016-12-03T05:02:08.198Z,956.43
2016-12-03T05:03:08.203Z,956.45
2016-12-03T05:04:08.213Z,956.44
2016-12-03T05:05:08.228Z,956.45
2016-12-03T05:06:08.241Z,956.43
2016-12-03T05:07:08.255Z,956.43
2016-12-03T05:08:08.268Z,956.4
2016-12-03T05:09:08.282Z,956.41
2016-12-03T05:10:08.295Z,956.44
2016-12-03T05:11:08.308Z,956.4
2016-12-03T05:12:08.321Z,956.39
2016-12-03T05:13:08.335Z,956.41
2016-12-03T05:14:08.355Z,956.42
2016-12-03T05:15:08.363Z,956.41
2016-12-03T05:16:08.375Z,956.47
2016-12-03T05:17:08.389Z,956.48
2016-12-03T05:18:08.403Z,956.43
2016-12-03T05:19:08.415Z,956.46
2016-12-03T05:20:08.429Z,956.46
2016-12-03T05:21:08.442Z,956.45
2016-12-03T05:22:08.455Z,956.43
2016-12-03T05:23:08.469Z,956.39
2016-12-03T05:24:08.483Z,956.42
2016-12-03T05:25:08.497Z,956.42
2016-12-03T05:26:08.509Z,956.39
2016-12-03T05:27:08.531Z,956.44
2016-12-03T05:28:08.546Z,956.44
2016-12-03T05:29:08.550Z,956.43
2016-12-03T05:30:08.562Z,956.44
2016-12-03T05:31:08.576Z,956.43
2016-12-03T05:32:08.588Z,956.38
2016-12-03T05:33:08.602Z,956.37
2016-12-03T05:34:08.615Z,956.4
2016-12-03T05:35:08.630Z,956.37
2016-12-03T05:36:08.644Z,956.36
2016-12-03T05:37:08.655Z,956.38
2016-12-03T05:38:08.668Z,956.32
2016-12-03T05:39:08.681Z,956.37
2016-12-03T05:40:08.696Z,956.36
2016-12-03T05:41:08.709Z,956.4
2016-12-03T05:42:08.721Z,956.36
2016-12-03T05:43:08.736Z,956.42
2016-12-03T05:44:08.748Z,956.38
2016-12-03T05:45:08.761Z,956.39
2016-12-03T05:46:08.775Z,956.4
2016-12-03T05:47:08.788Z,956.41
2016-12-03T05:48:08.803Z,956.4
2016-12-03T05:49:08.814Z,956.37
2016-12-03T05:50:08.835Z,956.39
2016-12-03T05:51:08.841Z,956.43
2016-12-03T05:52:08.854Z,956.42
2016-12-03T05:53:08.868Z,956.46
2016-12-03T05:54:08.883Z,956.43
2016-12-03T05:55:08.893Z,956.42
2016-12-03T05:56:08.907Z,956.42
2016-12-03T05:57:08.921Z,956.38
2016-12-03T05:58:08.934Z,956.39
2016-12-03T05:59:08.946Z,956.39
2016-12-03T06:00:08.961Z,956.39
2016-12-03T06:01:08.976Z,956.37
2016-12-03T06:02:08.986Z,956.41
2016-12-03T06:03:08.999Z,956.41
2016-12-03T06:04:09.025Z,956.41
2016-12-03T06:05:09.026Z,956.41
2016-12-03T06:06:09.037Z,956.4
2016-12-03T06:07:09.052Z,956.4
2016-12-03T06:08:09.066Z,956.4
2016-12-03T06:09:09.080Z,956.39
2016-12-03T06:10:09.092Z,956.4
2016-12-03T06:11:09.108Z,956.39
2016-12-03T06:12:09.118Z,956.4
2016-12-03T06:13:09.131Z,956.39
2016-12-03T06:14:09.144Z,956.38
2016-12-03T06:15:09.158Z,956.42
2016-12-03T06:16:09.173Z,956.38
2016-12-03T06:17:09.183Z,956.43
2016-12-03T06:18:09.196Z,956.42
2016-12-03T06:19:09.210Z,956.42
2016-12-03T06:20:09.222Z,956.46
2016-12-03T06:21:09.237Z,956.45
2016-12-03T06:22:09.248Z,956.41
2016-12-03T06:23:09.262Z,956.45
2016-12-03T06:24:09.274Z,956.41
2016-12-03T06:25:09.294Z,956.46
2016-12-03T06:26:09.316Z,956.46
2016-12-03T06:27:09.315Z,956.42
2016-12-03T06:28:09.326Z,956.43
2016-12-03T06:29:09.339Z,956.47
2016-12-03T06:30:09.354Z,956.5
2016-12-03T06:31:09.366Z,956.46
2016-12-03T06:32:09.378Z,956.49
2016-12-03T06:33:09.392Z,956.52
2016-12-03T06:34:09.405Z,956.52
2016-12-03T06:35:09.416Z,956.56
2016-12-03T06:36:09.430Z,956.49
2016-12-03T06:37:09.444Z,956.54
2016-12-03T06:38:09.457Z,956.52
2016-12-03T06:39:09.469Z,956.54
2016-12-03T06:40:09.504Z,956.53
2016-12-03T06:41:09.495Z,956.54
2016-12-03T06:42:09.509Z,956.56
2016-12-03T06:43:09.521Z,956.59
2016-12-03T06:44:09.537Z,956.63
2016-12-03T06:45:09.548Z,956.64
2016-12-03T06:46:09.560Z,956.65
2016-12-03T06:47:09.574Z,956.66
2016-12-03T06:48:09.585Z,956.65
2016-12-03T06:49:09.600Z,956.67
2016-12-03T06:50:09.613Z,956.6
2016-12-03T06:51:09.625Z,956.66
2016-12-03T06:52:09.640Z,956.69
2016-12-03T06:53:09.652Z,956.66
2016-12-03T06:54:09.666Z,956.65
2016-12-03T06:55:09.678Z,956.67
2016-12-03T06:56:09.691Z,956.69
2016-12-03T06:57:09.704Z,956.72
2016-12-03T06:58:09.715Z,956.71
2016-12-03T06:59:09.729Z,956.69
2016-12-03T07:00:09.742Z,956.71
2016-12-03T07:01:09.754Z,956.73
2016-12-03T07:02:09.768Z,956.74
2016-12-03T07:03:09.781Z,956.76
2016-12-03T07:04:09.794Z,956.79
2016-12-03T07:05:09.807Z,956.75
2016-12-03T07:06:09.821Z,956.75
2016-12-03T07:07:09.832Z,956.79
2016-12-03T07:08:09.844Z,956.8
2016-12-03T07:09:09.861Z,956.81
2016-12-03T07:10:09.872Z,956.82
2016-12-03T07:11:09.885Z,956.83
2016-12-03T07:12:09.897Z,956.8
2016-12-03T07:13:09.911Z,956.84
2016-12-03T07:14:09.922Z,956.87
2016-12-03T07:15:09.936Z,956.85
2016-12-03T07:16:09.949Z,956.84
2016-12-03T07:17:09.961Z,956.83
2016-12-03T07:18:09.974Z,956.81
2016-12-03T07:19:09.987Z,956.88
2016-12-03T07:20:09.999Z,956.84
2016-12-03T07:21:10.012Z,956.83
2016-12-03T07:22:10.026Z,956.82
2016-12-03T07:23:10.054Z,956.84
2016-12-03T07:24:10.050Z,956.78
2016-12-03T07:25:10.064Z,956.82
2016-12-03T07:26:10.078Z,956.83
2016-12-03T07:27:10.089Z,956.84
2016-12-03T07:28:10.103Z,956.85
2016-12-03T07:29:10.116Z,956.85
2016-12-03T07:30:10.129Z,956.86
2016-12-03T07:31:10.141Z,956.88
2016-12-03T07:32:10.155Z,956.88
2016-12-03T07:33:10.167Z,956.87
2016-12-03T07:34:10.179Z,956.9
2016-12-03T07:35:10.197Z,956.9
2016-12-03T07:36:10.206Z,956.93
2016-12-03T07:37:10.218Z,956.95
2016-12-03T07:38:10.282Z,956.98
2016-12-03T07:39:10.244Z,957
2016-12-03T07:40:10.259Z,956.99
2016-12-03T07:41:10.270Z,957.02
2016-12-03T07:42:10.284Z,957.03
2016-12-03T07:43:10.296Z,956.98
2016-12-03T07:44:10.309Z,957.01
2016-12-03T07:45:10.344Z,957.02
2016-12-03T07:46:10.335Z,957.04
2016-12-03T07:47:10.349Z,957.07
2016-12-03T07:48:10.359Z,957.02
2016-12-03T07:49:10.371Z,957.09
2016-12-03T07:50:10.386Z,957.1
2016-12-03T07:51:10.398Z,957.07
2016-12-03T07:52:10.412Z,957.06
2016-12-03T07:53:10.424Z,957.09
2016-12-03T07:54:10.437Z,957.05
2016-12-03T07:55:10.450Z,957.06
2016-12-03T07:56:10.463Z,957.05
2016-12-03T07:57:10.475Z,957.03
2016-12-03T07:58:10.488Z,957.05
2016-12-03T07:59:10.501Z,957.07
2016-12-03T08:00:10.513Z,957.06
2016-12-03T08:01:10.529Z,957.09
2016-12-03T08:02:10.539Z,957.05
2016-12-03T08:03:10.551Z,957.08
2016-12-03T08:04:10.565Z,957.05
2016-12-03T08:05:10.577Z,957.07
2016-12-03T08:06:10.601Z,957.05
2016-12-03T08:07:10.603Z,957.04
2016-12-03T08:08:10.616Z,957.09
2016-12-03T08:09:10.629Z,957.06
2016-12-03T08:10:10.641Z,957.07
2016-12-03T08:11:10.654Z,957.1
2016-12-03T08:12:10.666Z,957.16
2016-12-03T08:13:10.679Z,957.12
2016-12-03T08:14:10.692Z,957.13
2016-12-03T08:15:10.705Z,957.17
2016-12-03T08:16:10.719Z,957.16
2016-12-03T08:17:10.732Z,957.17
2016-12-03T08:18:10.744Z,957.17
2016-12-03T08:19:10.757Z,957.21
2016-12-03T08:20:10.771Z,957.23
2016-12-03T08:21:10.784Z,957.21
2016-12-03T08:22:10.796Z,957.21
2016-12-03T08:23:10.810Z,957.21
2016-12-03T08:24:10.822Z,957.24
2016-12-03T08:25:10.834Z,957.23
2016-12-03T08:26:10.848Z,957.27
2016-12-03T08:27:10.860Z,957.3
2016-12-03T08:28:10.890Z,957.31
2016-12-03T08:29:10.886Z,957.34
2016-12-03T08:30:10.899Z,957.35
2016-12-03T08:31:10.912Z,957.28
2016-12-03T08:32:10.923Z,957.32
2016-12-03T08:33:10.939Z,957.36
2016-12-03T08:34:10.950Z,957.31
2016-12-03T08:35:10.969Z,957.31
2016-12-03T08:36:10.976Z,957.42
2016-12-03T08:37:10.989Z,957.4
2016-12-03T08:38:11.002Z,957.4
2016-12-03T08:39:11.015Z,957.4
2016-12-03T08:40:11.026Z,957.35
2016-12-03T08:41:11.040Z,957.38
2016-12-03T08:42:11.053Z,957.36
2016-12-03T08:43:11.065Z,957.37
2016-12-03T08:44:11.079Z,957.35
2016-12-03T08:45:11.092Z,957.34
2016-12-03T08:46:11.105Z,957.37
2016-12-03T08:47:11.123Z,957.35
2016-12-03T08:48:11.130Z,957.38
2016-12-03T08:49:11.146Z,957.41
2016-12-03T08:50:11.157Z,957.41
2016-12-03T08:51:11.174Z,957.39
2016-12-03T08:52:11.184Z,957.45
2016-12-03T08:53:11.196Z,957.46
2016-12-03T08:54:11.208Z,957.47
2016-12-03T08:55:11.221Z,957.46
2016-12-03T08:56:11.234Z,957.49
2016-12-03T08:57:11.247Z,957.46
2016-12-03T08:58:11.260Z,957.47
2016-12-03T08:59:11.277Z,957.45
2016-12-03T09:00:11.286Z,957.49
2016-12-03T09:01:11.299Z,957.43
2016-12-03T09:02:11.312Z,957.44
2016-12-03T09:03:11.325Z,957.42
2016-12-03T09:04:11.339Z,957.4
2016-12-03T09:05:11.351Z,957.41
2016-12-03T09:06:11.364Z,957.47
2016-12-03T09:07:11.378Z,957.44
2016-12-03T09:08:11.392Z,957.48
2016-12-03T09:09:11.404Z,957.51
2016-12-03T09:10:11.417Z,957.53
2016-12-03T09:11:11.434Z,957.5
2016-12-03T09:12:11.443Z,957.52
2016-12-03T09:13:11.457Z,957.52
2016-12-03T09:14:11.471Z,957.5
2016-12-03T09:15:11.484Z,957.47
2016-12-03T09:16:11.496Z,957.56
2016-12-03T09:17:11.510Z,957.5
2016-12-03T09:18:11.523Z,957.5
2016-12-03T09:19:11.536Z,957.5
2016-12-03T09:20:11.550Z,957.54
2016-12-03T09:21:11.564Z,957.55
2016-12-03T09:22:11.577Z,957.49
2016-12-03T09:23:11.588Z,957.51
2016-12-03T09:24:11.601Z,957.58
2016-12-03T09:25:11.625Z,957.54
2016-12-03T09:26:11.628Z,957.58
2016-12-03T09:27:11.641Z,957.62
2016-12-03T09:28:11.653Z,957.62
2016-12-03T09:29:11.667Z,957.6
2016-12-03T09:30:11.680Z,957.61
2016-12-03T09:31:11.695Z,957.59
2016-12-03T09:32:11.709Z,957.62
2016-12-03T09:33:11.719Z,957.58
2016-12-03T09:34:11.732Z,957.56
2016-12-03T09:35:11.746Z,957.57
2016-12-03T09:36:11.759Z,957.58
2016-12-03T09:37:11.783Z,957.6
2016-12-03T09:38:11.787Z,957.61
2016-12-03T09:39:11.799Z,957.61
2016-12-03T09:40:11.812Z,957.57
2016-12-03T09:41:11.825Z,957.58
2016-12-03T09:42:11.838Z,957.54
2016-12-03T09:43:11.851Z,957.59
2016-12-03T09:44:11.864Z,957.55
2016-12-03T09:45:11.877Z,957.58
2016-12-03T09:46:11.891Z,957.62
2016-12-03T09:47:11.913Z,957.6
2016-12-03T09:48:11.918Z,957.56
2016-12-03T09:49:11.930Z,957.61
2016-12-03T09:50:11.944Z,957.55
2016-12-03T09:51:11.957Z,957.55
2016-12-03T09:52:11.971Z,957.49
2016-12-03T09:53:11.983Z,957.57
2016-12-03T09:54:11.997Z,957.57
2016-12-03T09:55:12.011Z,957.6
2016-12-03T09:56:12.023Z,957.6
2016-12-03T09:57:12.036Z,957.68
2016-12-03T09:58:12.049Z,957.64
2016-12-03T09:59:12.063Z,957.64
2016-12-03T10:00:12.076Z,957.67
2016-12-03T10:01:12.103Z,957.64
2016-12-03T10:02:12.103Z,957.64
2016-12-03T10:03:12.119Z,957.65
2016-12-03T10:04:12.129Z,957.63
2016-12-03T10:05:12.143Z,957.68
2016-12-03T10:06:12.157Z,957.62
2016-12-03T10:07:12.168Z,957.67
2016-12-03T10:08:12.183Z,957.63
2016-12-03T10:09:12.198Z,957.66
2016-12-03T10:10:12.210Z,957.65
2016-12-03T10:11:12.223Z,957.67
2016-12-03T10:12:12.236Z,957.59
2016-12-03T10:13:12.251Z,957.61
2016-12-03T10:14:12.265Z,957.6
2016-12-03T10:15:12.277Z,957.58
2016-12-03T10:16:12.291Z,957.58
2016-12-03T10:17:12.304Z,957.57
2016-12-03T10:18:12.317Z,957.55
2016-12-03T10:19:12.330Z,957.56
2016-12-03T10:20:12.345Z,957.53
2016-12-03T10:21:12.359Z,957.53
2016-12-03T10:22:12.372Z,957.54
2016-12-03T10:23:12.391Z,957.53
2016-12-03T10:24:12.399Z,957.54
2016-12-03T10:25:12.413Z,957.49
2016-12-03T10:26:12.426Z,957.54
2016-12-03T10:27:12.440Z,957.49
2016-12-03T10:28:12.454Z,957.44
2016-12-03T10:29:12.466Z,957.42
2016-12-03T10:30:12.480Z,957.39
2016-12-03T10:31:12.494Z,957.38
2016-12-03T10:32:12.508Z,957.4
2016-12-03T10:33:12.521Z,957.42
2016-12-03T10:34:12.533Z,957.45
2016-12-03T10:35:12.551Z,957.42
2016-12-03T10:36:12.562Z,957.41
2016-12-03T10:37:12.577Z,957.4
2016-12-03T10:38:12.589Z,957.41
2016-12-03T10:39:12.606Z,957.4
2016-12-03T10:40:12.617Z,957.39
2016-12-03T10:41:12.630Z,957.34
2016-12-03T10:42:12.644Z,957.32
2016-12-03T10:43:12.659Z,957.29
2016-12-03T10:44:12.672Z,957.32
2016-12-03T10:45:12.687Z,957.27
2016-12-03T10:46:12.700Z,957.26
2016-12-03T10:47:12.716Z,957.28
2016-12-03T10:48:12.729Z,957.27
2016-12-03T10:49:12.744Z,957.27
2016-12-03T10:50:12.760Z,957.28
2016-12-03T10:51:12.773Z,957.22
2016-12-03T10:52:12.799Z,957.24
2016-12-03T10:53:12.802Z,957.22
2016-12-03T10:54:12.817Z,957.23
2016-12-03T10:55:12.831Z,957.26
2016-12-03T10:56:12.847Z,957.25
2016-12-03T10:57:12.862Z,957.24
2016-12-03T10:58:12.876Z,957.21
2016-12-03T10:59:12.891Z,957.26
2016-12-03T11:00:12.907Z,957.22
2016-12-03T11:01:12.923Z,957.25
2016-12-03T11:02:12.937Z,957.2
2016-12-03T11:03:12.951Z,957.21
2016-12-03T11:04:12.968Z,957.24
2016-12-03T11:05:12.984Z,957.24
2016-12-03T11:06:12.998Z,957.21
2016-12-03T11:07:13.014Z,957.23
2016-12-03T11:08:13.030Z,957.25
2016-12-03T11:09:13.045Z,957.24
2016-12-03T11:10:13.061Z,957.27
2016-12-03T11:11:13.077Z,957.25
2016-12-03T11:12:13.093Z,957.25
2016-12-03T11:13:13.108Z,957.26
2016-12-03T11:14:13.145Z,957.28
2016-12-03T11:15:13.140Z,957.25
2016-12-03T11:16:13.156Z,957.25
2016-12-03T11:17:13.170Z,957.28
2016-12-03T11:18:13.190Z,957.3
2016-12-03T11:19:13.202Z,957.28
2016-12-03T11:20:13.218Z,957.23
2016-12-03T11:21:13.235Z,957.23
2016-12-03T11:22:13.252Z,957.25
2016-12-03T11:23:13.265Z,957.25
2016-12-03T11:24:13.282Z,957.22
2016-12-03T11:25:13.297Z,957.15
2016-12-03T11:26:13.314Z,957.13
2016-12-03T11:27:13.331Z,957.13
2016-12-03T11:28:13.348Z,957.12
2016-12-03T11:29:13.363Z,957.11
2016-12-03T11:30:13.379Z,957.11
2016-12-03T11:31:13.394Z,957.13
2016-12-03T11:32:13.411Z,957.24
2016-12-03T11:33:13.429Z,957.15
2016-12-03T11:34:13.444Z,957.22
2016-12-03T11:35:13.461Z,957.24
2016-12-03T11:36:13.492Z,957.21
2016-12-03T11:37:13.494Z,957.25
2016-12-03T11:38:13.511Z,957.17
2016-12-03T11:39:13.527Z,957.22
2016-12-03T11:40:13.545Z,957.21
2016-12-03T11:41:13.560Z,957.17
2016-12-03T11:42:13.576Z,957.18
2016-12-03T11:43:13.593Z,957.14
2016-12-03T11:44:13.611Z,957.11
2016-12-03T11:45:13.627Z,957.11
2016-12-03T11:46:13.643Z,957.04
2016-12-03T11:47:13.659Z,957.08
2016-12-03T11:48:13.738Z,957.08
2016-12-03T11:49:13.694Z,957.08
2016-12-03T11:50:13.709Z,957.05
2016-12-03T11:51:13.727Z,957.08
2016-12-03T11:52:13.743Z,957.12
2016-12-03T11:53:13.761Z,957.09
2016-12-03T11:54:13.777Z,957.15
2016-12-03T11:55:13.793Z,957.13
2016-12-03T11:56:13.811Z,957.09
2016-12-03T11:57:13.827Z,957.07
2016-12-03T11:58:13.845Z,957.07
2016-12-03T11:59:13.861Z,957.07
2016-12-03T12:00:13.877Z,957.07
2016-12-03T12:01:13.893Z,957.08
2016-12-03T12:02:13.910Z,957.07
2016-12-03T12:03:13.927Z,957.07
2016-12-03T12:04:13.944Z,957.06
2016-12-03T12:05:13.967Z,957.05
2016-12-03T12:06:13.978Z,957.02
2016-12-03T12:07:13.995Z,956.99
2016-12-03T12:08:14.012Z,956.97
2016-12-03T12:09:14.028Z,957.01
2016-12-03T12:10:14.047Z,957
2016-12-03T12:11:14.063Z,957.03
2016-12-03T12:12:14.079Z,956.96
2016-12-03T12:13:14.098Z,957.04
2016-12-03T12:14:14.116Z,956.98
2016-12-03T12:15:14.129Z,957.01
2016-12-03T12:16:14.147Z,957
2016-12-03T12:17:14.166Z,957.04
2016-12-03T12:18:14.182Z,957.02
2016-12-03T12:19:14.199Z,957.03
2016-12-03T12:20:14.219Z,957
2016-12-03T12:21:14.234Z,957.03
2016-12-03T12:22:14.252Z,957.05
2016-12-03T12:23:14.268Z,957.03
2016-12-03T12:24:14.287Z,956.99
2016-12-03T12:25:14.304Z,957.01
2016-12-03T12:26:14.324Z,957.01
2016-12-03T12:27:14.339Z,956.99
2016-12-03T12:28:14.357Z,956.95
2016-12-03T12:29:14.374Z,957
2016-12-03T12:30:14.392Z,956.98
2016-12-03T12:31:14.409Z,956.96